North Aurora, Illinois
Current Conditions -  °F | °C
As of 5:52 AM on Monday 20 Oct 2014 (Local Time) from KARR Reporting Station
Few Clouds Few Clouds  
Wind Chill: 44°   Ceiling: Unl
Heat Index: 47°   Visibility: 10mi
Dew Point: 42°   Wind: 6mph
Humidity: 83%   Direction: 230°SW
Pressure: 29.81"   Gusts: NA
Location:  41.81°N, 88.32°W
Report Text: KARR 201052Z AUTO 23005KT 10SM FEW100 08/06 A2981 RMK AO2 SLP097 T00830056
Loading
Personal Weather Stations






























Interactive Weather Map
Tropical Storm Tracking
New forecast layout! Learn more

10-Day Weather Forecast

Advertisements
Track Severe Weather on mobile